createdAt,value
2022-10-21T00:00:07.146Z,15.40
2022-10-21T00:02:58.917Z,15.40
2022-10-21T00:05:44.642Z,15.40
2022-10-21T00:08:30.642Z,15.40
2022-10-21T00:11:16.399Z,15.40
2022-10-21T00:14:01.893Z,15.50
2022-10-21T00:16:47.320Z,15.50
2022-10-21T00:19:33.667Z,15.50
2022-10-21T00:22:19.201Z,15.50
2022-10-21T00:25:05.303Z,15.50
2022-10-21T00:27:50.967Z,15.50
2022-10-21T00:30:36.346Z,15.60
2022-10-21T00:33:22.101Z,15.50
2022-10-21T00:36:08.064Z,15.60
2022-10-21T00:38:54.086Z,15.60
2022-10-21T00:41:39.869Z,15.60
2022-10-21T00:44:26.909Z,15.60
2022-10-21T00:47:19.280Z,15.60
2022-10-21T00:50:05.492Z,15.60
2022-10-21T00:52:51.472Z,15.60
2022-10-21T00:55:43.657Z,15.60
2022-10-21T00:58:31.831Z,15.60
2022-10-21T01:01:21.401Z,15.60
2022-10-21T01:04:07.500Z,15.60
2022-10-21T01:06:53.313Z,15.60
2022-10-21T01:09:39.156Z,15.70
2022-10-21T01:12:33.643Z,15.70
2022-10-21T01:15:27.725Z,15.70
2022-10-21T01:18:20.596Z,15.70
2022-10-21T01:21:09.048Z,15.80
2022-10-21T01:23:57.913Z,15.80
2022-10-21T01:27:16.592Z,15.80
2022-10-21T01:30:16.721Z,15.80
2022-10-21T01:33:21.403Z,15.80
2022-10-21T01:36:22.411Z,15.80
2022-10-21T01:39:34.279Z,15.80
2022-10-21T01:42:31.438Z,15.90
2022-10-21T01:45:29.063Z,15.80
2022-10-21T01:48:22.432Z,15.80
2022-10-21T01:51:08.842Z,15.70
2022-10-21T01:54:04.875Z,15.70
2022-10-21T01:56:52.337Z,15.70
2022-10-21T01:59:40.095Z,15.60
2022-10-21T02:02:30.425Z,15.60
2022-10-21T02:05:23.127Z,15.50
2022-10-21T02:08:09.066Z,15.50
2022-10-21T02:11:03.659Z,15.50
2022-10-21T02:14:13.912Z,15.40
2022-10-21T02:17:00.443Z,15.50
2022-10-21T02:19:46.541Z,15.50
2022-10-21T02:22:33.611Z,15.60
2022-10-21T02:25:25.221Z,15.60
2022-10-21T02:28:12.840Z,15.70
2022-10-21T02:31:19.687Z,15.70
2022-10-21T02:34:33.234Z,15.70
2022-10-21T02:40:37.947Z,15.80
2022-10-21T02:43:34.663Z,15.80
2022-10-21T02:46:20.716Z,15.80
2022-10-21T02:49:06.685Z,15.80
2022-10-21T02:51:52.581Z,15.80
2022-10-21T02:54:38.233Z,15.80
2022-10-21T02:57:23.841Z,15.90
2022-10-21T03:00:09.986Z,15.80
2022-10-21T03:02:55.688Z,15.80
2022-10-21T03:05:41.343Z,15.80
2022-10-21T03:08:26.840Z,15.90
2022-10-21T03:11:12.492Z,15.90
2022-10-21T03:13:57.906Z,15.90
2022-10-21T03:16:43.443Z,15.90
2022-10-21T03:19:28.996Z,15.80
2022-10-21T03:22:14.631Z,15.80
2022-10-21T03:25:00.427Z,15.70
2022-10-21T03:27:45.863Z,15.70
2022-10-21T03:30:31.746Z,15.60
2022-10-21T03:33:17.331Z,15.60
2022-10-21T03:36:03.036Z,15.60
2022-10-21T03:38:48.848Z,15.60
2022-10-21T03:41:34.328Z,15.50
2022-10-21T03:44:19.847Z,15.50
2022-10-21T03:47:05.417Z,15.40
2022-10-21T03:49:50.905Z,15.50
2022-10-21T03:52:36.537Z,15.60
2022-10-21T03:55:24.321Z,15.60
2022-10-21T03:58:09.841Z,15.70
2022-10-21T04:00:55.823Z,15.70
2022-10-21T04:03:41.648Z,15.70
2022-10-21T04:06:27.515Z,15.70
2022-10-21T04:09:13.093Z,15.70
2022-10-21T04:11:58.559Z,15.70
2022-10-21T04:14:44.215Z,15.70
2022-10-21T04:17:29.586Z,15.70
2022-10-21T04:20:15.180Z,15.80
2022-10-21T04:23:00.828Z,15.70
2022-10-21T04:25:46.866Z,15.70
2022-10-21T04:28:32.924Z,15.70
2022-10-21T04:31:18.417Z,15.70
2022-10-21T04:34:04.048Z,15.70
2022-10-21T04:36:49.849Z,15.70
2022-10-21T04:39:35.248Z,15.70
2022-10-21T04:42:20.816Z,15.80
2022-10-21T04:45:06.756Z,15.70
2022-10-21T04:47:52.175Z,15.70
2022-10-21T04:50:37.676Z,15.70
2022-10-21T04:53:23.346Z,15.80
2022-10-21T04:56:09.089Z,15.80
2022-10-21T04:58:54.735Z,15.70
2022-10-21T05:01:40.412Z,15.70
2022-10-21T05:04:25.953Z,15.60
2022-10-21T05:07:11.492Z,15.50
2022-10-21T05:09:57.327Z,15.40
2022-10-21T05:12:42.701Z,15.40
2022-10-21T05:15:28.267Z,15.30
2022-10-21T05:18:13.771Z,15.30
2022-10-21T05:20:59.350Z,15.20
2022-10-21T05:23:45.264Z,15.20
2022-10-21T05:26:31.082Z,15.10
2022-10-21T05:29:16.556Z,15.10
2022-10-21T05:32:01.984Z,15.00
2022-10-21T05:34:47.499Z,15.00
2022-10-21T05:37:33.546Z,15.00
2022-10-21T05:40:19.156Z,15.00
2022-10-21T05:43:04.981Z,14.90
2022-10-21T05:45:50.656Z,14.90
2022-10-21T05:48:36.848Z,14.90
2022-10-21T05:51:26.397Z,14.90
2022-10-21T05:54:12.220Z,15.00
2022-10-21T05:56:58.130Z,15.10
2022-10-21T05:59:43.837Z,15.20
2022-10-21T06:02:29.588Z,15.20
2022-10-21T06:05:15.149Z,15.30
2022-10-21T06:08:00.647Z,15.30
2022-10-21T06:10:46.124Z,15.30
2022-10-21T06:13:32.137Z,15.30
2022-10-21T06:16:17.725Z,15.30
2022-10-21T06:19:03.533Z,15.30
2022-10-21T06:21:49.526Z,15.30
2022-10-21T06:24:35.373Z,15.30
2022-10-21T06:27:20.932Z,15.30
2022-10-21T06:30:06.877Z,15.30
2022-10-21T06:32:52.351Z,14.60
2022-10-21T06:35:37.922Z,15.20
2022-10-21T06:38:24.362Z,15.10
2022-10-21T06:41:13.586Z,15.10
2022-10-21T06:43:59.403Z,15.10
2022-10-21T06:46:44.876Z,15.00
2022-10-21T06:49:30.269Z,15.00
2022-10-21T06:52:15.946Z,14.90
2022-10-21T06:55:01.331Z,14.90
2022-10-21T06:57:46.800Z,14.90
2022-10-21T07:00:33.129Z,14.90
2022-10-21T07:03:18.874Z,14.90
2022-10-21T07:06:04.905Z,14.90
2022-10-21T07:08:57.961Z,14.90
2022-10-21T07:11:44.667Z,14.90
2022-10-21T07:14:30.573Z,15.00
2022-10-21T07:17:17.426Z,15.00
2022-10-21T07:20:03.164Z,15.10
2022-10-21T07:22:48.596Z,15.10
2022-10-21T07:25:34.136Z,15.20
2022-10-21T07:28:19.565Z,15.30
2022-10-21T07:31:06.516Z,15.40
2022-10-21T07:33:52.433Z,15.40
2022-10-21T07:36:42.011Z,15.50
2022-10-21T07:39:27.914Z,15.60
2022-10-21T07:42:13.664Z,15.60
2022-10-21T07:45:01.199Z,15.70
2022-10-21T07:47:47.549Z,15.70
2022-10-21T07:50:33.000Z,15.80
2022-10-21T07:53:20.836Z,15.90
2022-10-21T07:56:15.388Z,15.90
2022-10-21T07:59:01.962Z,16.00
2022-10-21T08:04:34.694Z,16.10
2022-10-21T08:07:20.324Z,16.10
2022-10-21T08:10:06.524Z,16.20
2022-10-21T08:12:52.073Z,16.20
2022-10-21T08:15:42.791Z,16.30
2022-10-21T08:18:28.704Z,16.40
2022-10-21T08:21:14.833Z,16.40
2022-10-21T08:24:03.813Z,16.60
2022-10-21T08:26:50.399Z,16.70
2022-10-21T08:29:37.730Z,16.80
2022-10-21T08:32:25.377Z,16.90
2022-10-21T08:35:10.869Z,16.90
2022-10-21T08:37:56.566Z,16.90
2022-10-21T08:40:46.465Z,16.90
2022-10-21T08:43:34.997Z,16.90
2022-10-21T08:46:26.576Z,16.90
2022-10-21T08:49:21.789Z,16.90
2022-10-21T08:52:21.323Z,17.00
2022-10-21T08:55:15.249Z,17.00
2022-10-21T08:58:02.381Z,17.10
2022-10-21T09:00:53.313Z,17.10
2022-10-21T09:03:59.869Z,17.20
2022-10-21T09:06:53.043Z,17.20
2022-10-21T09:09:54.758Z,17.30
2022-10-21T09:12:56.519Z,17.40
2022-10-21T09:16:00.321Z,17.40
2022-10-21T09:19:15.445Z,17.50
2022-10-21T09:22:35.406Z,17.50
2022-10-21T09:25:30.198Z,17.60
2022-10-21T09:28:16.740Z,17.60
2022-10-21T09:31:09.860Z,17.70
2022-10-21T09:33:59.536Z,17.70
2022-10-21T09:36:48.706Z,17.70
2022-10-21T09:39:42.052Z,17.70
2022-10-21T09:42:47.534Z,17.80
2022-10-21T09:45:36.226Z,17.80
2022-10-21T09:49:08.142Z,17.80
2022-10-21T09:51:50.796Z,17.80
2022-10-21T09:54:40.167Z,17.80
2022-10-21T09:57:36.569Z,17.80
2022-10-21T10:00:22.277Z,17.80
2022-10-21T10:03:09.152Z,17.80
2022-10-21T10:05:54.414Z,17.90
2022-10-21T10:08:49.242Z,17.90
2022-10-21T10:11:47.798Z,17.90
2022-10-21T10:14:42.580Z,17.90
2022-10-21T10:17:38.589Z,17.90
2022-10-21T10:20:24.275Z,17.90
2022-10-21T10:23:18.707Z,17.90
2022-10-21T10:26:04.429Z,17.90
2022-10-21T10:28:52.847Z,17.90
2022-10-21T10:31:39.128Z,17.90
2022-10-21T10:34:33.640Z,17.90
2022-10-21T10:37:23.103Z,18.00
2022-10-21T10:40:09.868Z,18.00
2022-10-21T10:43:12.214Z,18.00
2022-10-21T10:46:01.450Z,18.00
2022-10-21T10:48:50.288Z,18.00
2022-10-21T10:51:36.350Z,18.00
2022-10-21T10:54:27.401Z,18.00
2022-10-21T10:57:34.087Z,18.00
2022-10-21T11:00:35.497Z,18.00
2022-10-21T11:03:29.846Z,18.10
2022-10-21T11:06:27.628Z,18.00
2022-10-21T11:09:14.003Z,18.00
2022-10-21T11:12:01.681Z,18.00
2022-10-21T11:14:56.327Z,18.00
2022-10-21T11:18:00.486Z,18.00
2022-10-21T11:21:10.178Z,18.10
2022-10-21T11:24:05.340Z,18.10
2022-10-21T11:27:02.153Z,18.10
2022-10-21T11:29:54.572Z,18.10
2022-10-21T11:33:18.163Z,18.10
2022-10-21T11:36:27.176Z,18.10
2022-10-21T11:39:27.906Z,18.10
2022-10-21T11:42:28.682Z,18.10
2022-10-21T11:45:38.908Z,18.20
2022-10-21T11:48:33.882Z,18.10
2022-10-21T11:51:28.450Z,18.20
2022-10-21T11:54:37.116Z,18.10
2022-10-21T11:57:29.764Z,18.10
2022-10-21T12:00:27.316Z,18.20
2022-10-21T12:03:35.239Z,18.20
2022-10-21T12:06:55.806Z,18.20
2022-10-21T12:09:59.396Z,18.20
2022-10-21T12:12:49.217Z,18.20
2022-10-21T12:15:41.224Z,18.20
2022-10-21T12:18:29.677Z,18.10
2022-10-21T12:21:18.968Z,18.10
2022-10-21T12:24:23.222Z,18.10
2022-10-21T12:27:39.504Z,18.20
2022-10-21T12:30:59.099Z,18.20
2022-10-21T12:33:47.954Z,18.20
2022-10-21T12:36:40.109Z,18.20
2022-10-21T12:39:35.075Z,18.10
2022-10-21T12:42:25.829Z,18.10
2022-10-21T12:45:33.738Z,18.00
2022-10-21T12:48:33.148Z,18.00
2022-10-21T12:51:28.114Z,18.00
2022-10-21T12:54:17.735Z,18.00
2022-10-21T12:57:09.528Z,17.90
2022-10-21T13:03:12.702Z,17.90
2022-10-21T13:06:04.026Z,17.90
2022-10-21T13:08:55.837Z,17.90
2022-10-21T13:11:41.410Z,17.90
2022-10-21T13:14:38.009Z,17.90
2022-10-21T13:17:32.718Z,17.90
2022-10-21T13:20:20.216Z,17.90
2022-10-21T13:23:29.689Z,17.90
2022-10-21T13:26:21.003Z,17.90
2022-10-21T13:29:11.498Z,17.90
2022-10-21T13:32:14.721Z,17.80
2022-10-21T13:35:28.259Z,17.80
2022-10-21T13:38:33.703Z,17.80
2022-10-21T13:41:25.156Z,17.80
2022-10-21T13:44:29.961Z,17.80
2022-10-21T13:47:30.976Z,17.90
2022-10-21T13:50:21.069Z,17.90
2022-10-21T13:53:23.936Z,17.90
2022-10-21T13:56:36.893Z,17.90
2022-10-21T13:59:32.729Z,18.00
2022-10-21T14:02:26.344Z,18.00
2022-10-21T14:05:38.714Z,18.10
2022-10-21T14:08:33.114Z,18.10
2022-10-21T14:11:27.960Z,18.20
2022-10-21T14:14:17.241Z,18.10
2022-10-21T14:17:08.120Z,18.20
2022-10-21T14:19:59.415Z,18.20
2022-10-21T14:22:50.044Z,18.20
2022-10-21T14:25:36.736Z,18.20
2022-10-21T14:28:22.957Z,18.20
2022-10-21T14:31:13.559Z,18.20
2022-10-21T14:33:59.426Z,18.30
2022-10-21T14:37:18.288Z,18.40
2022-10-21T14:40:31.911Z,18.60
2022-10-21T14:43:25.512Z,18.60
2022-10-21T14:46:11.960Z,18.60
2022-10-21T14:49:04.805Z,18.70
2022-10-21T14:51:51.192Z,18.70
2022-10-21T14:54:46.280Z,18.70
2022-10-21T14:57:37.446Z,18.60
2022-10-21T15:00:30.695Z,18.60
2022-10-21T15:03:16.074Z,18.60
2022-10-21T15:06:18.546Z,18.60
2022-10-21T15:09:10.160Z,18.60
2022-10-21T15:11:56.021Z,18.50
2022-10-21T15:14:41.445Z,18.50
2022-10-21T15:17:27.053Z,18.50
2022-10-21T15:20:16.322Z,18.50
2022-10-21T15:23:02.025Z,18.40
2022-10-21T15:25:50.901Z,18.40
2022-10-21T15:28:37.562Z,18.40
2022-10-21T15:31:29.228Z,18.30
2022-10-21T15:34:16.089Z,18.30
2022-10-21T15:37:02.027Z,18.30
2022-10-21T15:39:48.613Z,18.30
2022-10-21T15:42:34.083Z,18.20
2022-10-21T15:45:22.989Z,18.20
2022-10-21T15:48:09.916Z,18.20
2022-10-21T15:50:57.827Z,18.20
2022-10-21T15:53:44.589Z,18.20
2022-10-21T15:56:30.784Z,18.20
2022-10-21T15:59:18.108Z,18.20
2022-10-21T16:04:54.850Z,18.10
2022-10-21T16:07:41.077Z,18.10
2022-10-21T16:10:30.317Z,18.10
2022-10-21T16:13:16.172Z,18.10
2022-10-21T16:16:02.065Z,18.10
2022-10-21T16:18:48.212Z,18.00
2022-10-21T16:21:33.953Z,18.00
2022-10-21T16:24:19.587Z,18.00
2022-10-21T16:27:10.227Z,18.00
2022-10-21T16:29:56.080Z,18.00
2022-10-21T16:32:41.901Z,18.00
2022-10-21T16:35:27.637Z,18.00
2022-10-21T16:38:13.093Z,17.90
2022-10-21T16:40:58.438Z,17.90
2022-10-21T16:43:45.484Z,17.90
2022-10-21T16:46:35.020Z,17.90
2022-10-21T16:49:26.673Z,17.90
2022-10-21T16:52:12.420Z,17.80
2022-10-21T16:54:58.073Z,17.80
2022-10-21T16:57:43.745Z,17.80
2022-10-21T17:00:29.476Z,17.80
2022-10-21T17:03:15.025Z,17.80
2022-10-21T17:06:00.686Z,17.80
2022-10-21T17:08:47.755Z,17.80
2022-10-21T17:11:38.854Z,17.80
2022-10-21T17:14:24.527Z,17.80
2022-10-21T17:17:09.899Z,17.80
2022-10-21T17:19:55.523Z,17.70
2022-10-21T17:22:41.027Z,17.70
2022-10-21T17:25:27.915Z,17.70
2022-10-21T17:28:14.347Z,17.70
2022-10-21T17:30:59.953Z,17.70
2022-10-21T17:33:47.132Z,17.70
2022-10-21T17:36:36.375Z,17.70
2022-10-21T17:39:21.963Z,17.70
2022-10-21T17:42:07.782Z,17.70
2022-10-21T17:44:53.863Z,17.70
2022-10-21T17:47:40.755Z,17.70
2022-10-21T17:50:26.728Z,17.70
2022-10-21T17:53:12.269Z,17.70
2022-10-21T17:56:03.081Z,17.70
2022-10-21T17:58:54.089Z,17.70
2022-10-21T18:01:39.520Z,17.70
2022-10-21T18:04:25.047Z,17.70
2022-10-21T18:07:11.546Z,17.60
2022-10-21T18:09:59.072Z,17.60
2022-10-21T18:12:44.929Z,17.60
2022-10-21T18:15:31.481Z,17.60
2022-10-21T18:18:17.944Z,17.60
2022-10-21T18:21:06.680Z,17.60
2022-10-21T18:23:53.484Z,17.60
2022-10-21T18:26:39.612Z,17.60
2022-10-21T18:29:25.385Z,17.60
2022-10-21T18:32:13.821Z,15.90
2022-10-21T18:35:00.566Z,17.70
2022-10-21T18:37:46.989Z,17.70
2022-10-21T18:40:33.637Z,17.70
2022-10-21T18:43:19.326Z,17.70
2022-10-21T18:46:05.374Z,17.70
2022-10-21T18:48:51.302Z,17.70
2022-10-21T18:51:36.869Z,17.70
2022-10-21T18:54:22.559Z,17.60
2022-10-21T18:57:10.102Z,17.60
2022-10-21T18:59:55.883Z,17.60
2022-10-21T19:02:41.636Z,17.60
2022-10-21T19:05:27.065Z,17.60
2022-10-21T19:08:12.558Z,17.50
2022-10-21T19:10:57.912Z,17.50
2022-10-21T19:13:43.449Z,17.50
2022-10-21T19:16:29.020Z,17.50
2022-10-21T19:19:15.631Z,17.50
2022-10-21T19:22:01.196Z,17.50
2022-10-21T19:24:46.721Z,17.50
2022-10-21T19:27:32.688Z,17.50
2022-10-21T19:30:18.657Z,17.50
2022-10-21T19:33:04.632Z,17.50
2022-10-21T19:35:50.364Z,17.50
2022-10-21T19:38:44.036Z,17.50
2022-10-21T19:41:30.273Z,17.50
2022-10-21T19:44:15.899Z,17.50
2022-10-21T19:47:01.688Z,17.50
2022-10-21T19:49:47.188Z,17.50
2022-10-21T19:52:32.695Z,17.50
2022-10-21T19:55:19.113Z,17.50
2022-10-21T19:58:04.497Z,17.50
2022-10-21T20:01:01.164Z,17.50
2022-10-21T20:03:48.922Z,17.50
2022-10-21T20:06:36.987Z,17.50
2022-10-21T20:09:22.866Z,17.50
2022-10-21T20:12:08.422Z,17.50
2022-10-21T20:14:54.243Z,17.50
2022-10-21T20:17:40.094Z,17.50
2022-10-21T20:20:25.713Z,17.50
2022-10-21T20:23:11.391Z,17.50
2022-10-21T20:25:58.027Z,17.50
2022-10-21T20:28:43.782Z,17.50
2022-10-21T20:31:30.077Z,17.50
2022-10-21T20:34:15.870Z,17.50
2022-10-21T20:37:01.296Z,17.50
2022-10-21T20:39:46.834Z,17.50
2022-10-21T20:42:33.327Z,17.50
2022-10-21T20:45:19.976Z,17.40
2022-10-21T20:48:05.633Z,17.40
2022-10-21T20:51:07.155Z,17.50
2022-10-21T20:54:04.147Z,17.50
2022-10-21T20:56:49.632Z,17.40
2022-10-21T20:59:35.235Z,17.50
2022-10-21T21:02:20.641Z,17.40
2022-10-21T21:05:06.574Z,17.40
2022-10-21T21:07:51.932Z,17.40
2022-10-21T21:10:37.657Z,17.40
2022-10-21T21:13:23.262Z,17.40
2022-10-21T21:16:14.984Z,17.40
2022-10-21T21:19:03.184Z,17.30
2022-10-21T21:21:48.954Z,17.30
2022-10-21T21:24:34.412Z,17.30
2022-10-21T21:27:19.947Z,17.30
2022-10-21T21:30:05.765Z,17.30
2022-10-21T21:32:51.233Z,17.30
2022-10-21T21:35:36.649Z,17.30
2022-10-21T21:38:23.329Z,17.20
2022-10-21T21:41:10.554Z,17.20
2022-10-21T21:43:56.951Z,17.20
2022-10-21T21:46:42.801Z,17.20
2022-10-21T21:49:28.426Z,17.20
2022-10-21T21:52:14.407Z,17.20
2022-10-21T21:55:00.156Z,17.10
2022-10-21T21:57:45.604Z,17.10
2022-10-21T22:00:31.631Z,17.10
2022-10-21T22:03:17.245Z,17.10
2022-10-21T22:06:02.706Z,17.10
2022-10-21T22:08:49.391Z,17.10
2022-10-21T22:11:35.814Z,17.10
2022-10-21T22:14:21.543Z,17.00
2022-10-21T22:17:06.940Z,17.10
2022-10-21T22:19:53.973Z,17.00
2022-10-21T22:22:39.615Z,17.00
2022-10-21T22:25:25.267Z,17.00
2022-10-21T22:28:10.780Z,17.00
2022-10-21T22:30:59.130Z,17.00
2022-10-21T22:33:45.247Z,17.00
2022-10-21T22:36:31.022Z,16.90
2022-10-21T22:39:16.475Z,17.00
2022-10-21T22:42:02.367Z,17.10
2022-10-21T22:44:48.090Z,17.10
2022-10-21T22:47:33.735Z,17.10
2022-10-21T22:50:19.319Z,17.00
2022-10-21T22:53:05.717Z,17.00
2022-10-21T22:55:51.157Z,17.10
2022-10-21T22:58:36.664Z,17.10
2022-10-21T23:01:24.046Z,17.10
2022-10-21T23:04:10.360Z,17.00
2022-10-21T23:06:56.138Z,17.00
2022-10-21T23:09:41.827Z,17.00
2022-10-21T23:12:27.488Z,17.00
2022-10-21T23:15:13.119Z,17.00
2022-10-21T23:17:59.125Z,17.00
2022-10-21T23:20:45.221Z,16.90
2022-10-21T23:23:30.967Z,16.90
2022-10-21T23:26:16.510Z,16.90
2022-10-21T23:29:02.032Z,16.90
2022-10-21T23:31:47.731Z,16.80
2022-10-21T23:34:33.286Z,16.80
2022-10-21T23:37:21.650Z,16.80
2022-10-21T23:40:08.534Z,16.70
2022-10-21T23:42:54.514Z,16.70
2022-10-21T23:45:39.992Z,16.70
2022-10-21T23:48:25.590Z,16.60
2022-10-21T23:51:11.184Z,16.70
2022-10-21T23:53:56.767Z,16.70
2022-10-21T23:56:42.308Z,16.70
2022-10-21T23:59:27.878Z,16.60
